sensor_id;sensor_type;location;lat;lon;timestamp;pressure;altitude;pressure_sealevel;temperature;humidity
8334;BME280;4204;43.004;23.052;2023-02-16T00:00:43;94992.97;;;-2.07;100.00
8334;BME280;4204;43.004;23.052;2023-02-16T00:03:17;94997.41;;;-2.01;100.00
8334;BME280;4204;43.004;23.052;2023-02-16T00:05:46;94996.56;;;-1.95;100.00
8334;BME280;4204;43.004;23.052;2023-02-16T00:08:14;95000.16;;;-1.89;100.00
8334;BME280;4204;43.004;23.052;2023-02-16T00:10:42;94990.25;;;-2.25;100.00
8334;BME280;4204;43.004;23.052;2023-02-16T00:13:31;94999.72;;;-2.43;100.00
8334;BME280;4204;43.004;23.052;2023-02-16T00:16:15;94987.13;;;-2.47;100.00
8334;BME280;4204;43.004;23.052;2023-02-16T00:18:45;94995.53;;;-2.44;100.00
8334;BME280;4204;43.004;23.052;2023-02-16T00:21:14;94987.50;;;-2.50;100.00
8334;BME280;4204;43.004;23.052;2023-02-16T00:23:42;94981.72;;;-2.58;100.00
8334;BME280;4204;43.004;23.052;2023-02-16T00:26:14;94984.47;;;-2.40;100.00
8334;BME280;4204;43.004;23.052;2023-02-16T00:28:44;94969.06;;;-2.48;100.00
8334;BME280;4204;43.004;23.052;2023-02-16T00:31:17;94984.22;;;-2.19;100.00
8334;BME280;4204;43.004;23.052;2023-02-16T00:33:46;94968.06;;;-2.40;100.00
8334;BME280;4204;43.004;23.052;2023-02-16T00:36:16;94987.47;;;-2.30;100.00
8334;BME280;4204;43.004;23.052;2023-02-16T00:38:44;94983.03;;;-2.29;100.00
8334;BME280;4204;43.004;23.052;2023-02-16T00:41:17;94985.88;;;-2.37;100.00
8334;BME280;4204;43.004;23.052;2023-02-16T00:43:59;94986.75;;;-2.76;100.00
8334;BME280;4204;43.004;23.052;2023-02-16T00:46:27;94979.53;;;-2.61;100.00
8334;BME280;4204;43.004;23.052;2023-02-16T00:48:57;94984.16;;;-2.63;100.00
8334;BME280;4204;43.004;23.052;2023-02-16T00:51:24;94982.34;;;-2.69;100.00
8334;BME280;4204;43.004;23.052;2023-02-16T00:53:52;94976.50;;;-2.58;100.00
8334;BME280;4204;43.004;23.052;2023-02-16T00:56:20;94973.88;;;-2.45;100.00
8334;BME280;4204;43.004;23.052;2023-02-16T00:58:51;94974.66;;;-1.49;100.00
8334;BME280;4204;43.004;23.052;2023-02-16T01:01:21;94972.19;;;-1.76;100.00
8334;BME280;4204;43.004;23.052;2023-02-16T01:03:52;94970.91;;;-1.98;100.00
8334;BME280;4204;43.004;23.052;2023-02-16T01:06:23;94967.94;;;-2.08;100.00
8334;BME280;4204;43.004;23.052;2023-02-16T01:09:12;94976.41;;;-2.19;100.00
8334;BME280;4204;43.004;23.052;2023-02-16T01:11:58;94970.81;;;-2.29;100.00
8334;BME280;4204;43.004;23.052;2023-02-16T01:14:26;94974.69;;;-2.38;100.00
8334;BME280;4204;43.004;23.052;2023-02-16T01:16:54;94956.44;;;-2.44;100.00
8334;BME280;4204;43.004;23.052;2023-02-16T01:19:21;94964.69;;;-2.61;100.00
8334;BME280;4204;43.004;23.052;2023-02-16T01:21:51;94951.94;;;-2.75;100.00
8334;BME280;4204;43.004;23.052;2023-02-16T01:24:18;94968.16;;;-2.86;100.00
8334;BME280;4204;43.004;23.052;2023-02-16T01:26:48;94956.50;;;-2.71;100.00
8334;BME280;4204;43.004;23.052;2023-02-16T01:29:19;94945.72;;;-2.87;100.00
8334;BME280;4204;43.004;23.052;2023-02-16T01:31:49;94946.50;;;-2.67;100.00
8334;BME280;4204;43.004;23.052;2023-02-16T01:34:16;94948.44;;;-2.43;100.00
8334;BME280;4204;43.004;23.052;2023-02-16T01:36:46;94948.66;;;-2.51;100.00
8334;BME280;4204;43.004;23.052;2023-02-16T01:39:17;94943.91;;;-2.74;100.00
8334;BME280;4204;43.004;23.052;2023-02-16T01:42:03;94948.88;;;-2.66;100.00
8334;BME280;4204;43.004;23.052;2023-02-16T01:44:39;94939.34;;;-3.04;100.00
8334;BME280;4204;43.004;23.052;2023-02-16T01:47:18;94945.16;;;-3.02;100.00
8334;BME280;4204;43.004;23.052;2023-02-16T01:49:49;94944.13;;;-3.01;100.00
8334;BME280;4204;43.004;23.052;2023-02-16T01:52:25;94948.34;;;-3.00;100.00
8334;BME280;4204;43.004;23.052;2023-02-16T01:55:00;94945.53;;;-2.99;100.00
8334;BME280;4204;43.004;23.052;2023-02-16T01:57:37;94941.72;;;-2.90;100.00
8334;BME280;4204;43.004;23.052;2023-02-16T02:00:11;94936.91;;;-2.73;100.00
8334;BME280;4204;43.004;23.052;2023-02-16T02:02:45;94941.09;;;-2.72;100.00
8334;BME280;4204;43.004;23.052;2023-02-16T02:05:22;94942.06;;;-2.67;100.00
8334;BME280;4204;43.004;23.052;2023-02-16T02:08:07;94948.63;;;-2.44;100.00
8334;BME280;4204;43.004;23.052;2023-02-16T02:10:49;94933.78;;;-2.44;100.00
8334;BME280;4204;43.004;23.052;2023-02-16T02:13:23;94945.44;;;-2.47;100.00
8334;BME280;4204;43.004;23.052;2023-02-16T02:15:56;94938.44;;;-2.53;100.00
8334;BME280;4204;43.004;23.052;2023-02-16T02:18:25;94929.63;;;-2.58;100.00
8334;BME280;4204;43.004;23.052;2023-02-16T02:21:14;94939.13;;;-2.19;100.00
8334;BME280;4204;43.004;23.052;2023-02-16T02:24:30;94935.63;;;-2.07;100.00
8334;BME280;4204;43.004;23.052;2023-02-16T02:27:14;94933.50;;;-2.23;100.00
8334;BME280;4204;43.004;23.052;2023-02-16T02:30:07;94937.53;;;-2.20;100.00
8334;BME280;4204;43.004;23.052;2023-02-16T02:33:01;94937.75;;;-2.28;100.00
8334;BME280;4204;43.004;23.052;2023-02-16T02:35:42;94933.63;;;-2.05;100.00
8334;BME280;4204;43.004;23.052;2023-02-16T02:38:22;94934.06;;;-2.08;100.00
8334;BME280;4204;43.004;23.052;2023-02-16T02:40:57;94922.84;;;-2.15;100.00
8334;BME280;4204;43.004;23.052;2023-02-16T02:43:31;94934.03;;;-2.01;100.00
8334;BME280;4204;43.004;23.052;2023-02-16T02:46:06;94936.81;;;-2.03;100.00
8334;BME280;4204;43.004;23.052;2023-02-16T02:48:35;94942.34;;;-2.24;100.00
8334;BME280;4204;43.004;23.052;2023-02-16T02:51:09;94941.69;;;-2.13;100.00
8334;BME280;4204;43.004;23.052;2023-02-16T02:54:04;94944.47;;;-2.08;100.00
8334;BME280;4204;43.004;23.052;2023-02-16T02:56:56;94947.31;;;-2.16;100.00
8334;BME280;4204;43.004;23.052;2023-02-16T02:59:53;94942.94;;;-2.22;100.00
8334;BME280;4204;43.004;23.052;2023-02-16T03:02:42;94944.59;;;-2.34;100.00
8334;BME280;4204;43.004;23.052;2023-02-16T03:05:14;94947.16;;;-2.27;100.00
8334;BME280;4204;43.004;23.052;2023-02-16T03:07:44;94943.78;;;-2.34;100.00
8334;BME280;4204;43.004;23.052;2023-02-16T03:10:18;94949.66;;;-2.52;100.00
8334;BME280;4204;43.004;23.052;2023-02-16T03:13:10;94931.97;;;-2.37;100.00
8334;BME280;4204;43.004;23.052;2023-02-16T03:15:40;94932.03;;;-2.06;100.00
8334;BME280;4204;43.004;23.052;2023-02-16T03:18:09;94929.84;;;-2.66;100.00
8334;BME280;4204;43.004;23.052;2023-02-16T03:20:57;94941.53;;;-2.88;100.00
8334;BME280;4204;43.004;23.052;2023-02-16T03:23:43;94945.75;;;-3.00;100.00
8334;BME280;4204;43.004;23.052;2023-02-16T03:26:29;94936.97;;;-3.19;100.00
8334;BME280;4204;43.004;23.052;2023-02-16T03:29:16;94945.56;;;-3.32;100.00
8334;BME280;4204;43.004;23.052;2023-02-16T03:31:49;94935.16;;;-3.32;100.00
8334;BME280;4204;43.004;23.052;2023-02-16T03:34:19;94933.97;;;-3.36;100.00
8334;BME280;4204;43.004;23.052;2023-02-16T03:36:49;94935.34;;;-3.13;100.00
8334;BME280;4204;43.004;23.052;2023-02-16T03:39:19;94929.94;;;-3.12;100.00
8334;BME280;4204;43.004;23.052;2023-02-16T03:41:49;94929.31;;;-3.07;100.00
8334;BME280;4204;43.004;23.052;2023-02-16T03:44:18;94929.53;;;-3.09;100.00
8334;BME280;4204;43.004;23.052;2023-02-16T03:46:48;94925.53;;;-2.92;100.00
8334;BME280;4204;43.004;23.052;2023-02-16T03:49:16;94923.69;;;-2.91;100.00
8334;BME280;4204;43.004;23.052;2023-02-16T03:51:43;94921.47;;;-2.75;100.00
8334;BME280;4204;43.004;23.052;2023-02-16T03:54:12;94917.06;;;-2.74;100.00
8334;BME280;4204;43.004;23.052;2023-02-16T03:56:40;94912.31;;;-3.03;100.00
8334;BME280;4204;43.004;23.052;2023-02-16T03:59:08;94918.91;;;-3.01;100.00
8334;BME280;4204;43.004;23.052;2023-02-16T04:01:35;94916.91;;;-2.92;100.00
8334;BME280;4204;43.004;23.052;2023-02-16T04:04:05;94911.25;;;-2.76;100.00
8334;BME280;4204;43.004;23.052;2023-02-16T04:06:33;94911.28;;;-2.89;100.00
8334;BME280;4204;43.004;23.052;2023-02-16T04:09:01;94916.91;;;-2.86;100.00
8334;BME280;4204;43.004;23.052;2023-02-16T04:11:28;94923.69;;;-2.78;100.00
8334;BME280;4204;43.004;23.052;2023-02-16T04:14:14;94915.88;;;-2.78;100.00
8334;BME280;4204;43.004;23.052;2023-02-16T04:16:42;94919.50;;;-2.86;100.00
8334;BME280;4204;43.004;23.052;2023-02-16T04:19:11;94907.91;;;-3.03;100.00
8334;BME280;4204;43.004;23.052;2023-02-16T04:21:38;94917.34;;;-3.08;100.00
8334;BME280;4204;43.004;23.052;2023-02-16T04:24:08;94909.09;;;-2.99;100.00
8334;BME280;4204;43.004;23.052;2023-02-16T04:26:35;94916.31;;;-3.01;100.00
8334;BME280;4204;43.004;23.052;2023-02-16T04:29:03;94913.88;;;-2.96;100.00
8334;BME280;4204;43.004;23.052;2023-02-16T04:31:31;94920.28;;;-2.85;100.00
8334;BME280;4204;43.004;23.052;2023-02-16T04:33:58;94918.28;;;-2.83;100.00
8334;BME280;4204;43.004;23.052;2023-02-16T04:36:27;94911.63;;;-2.73;100.00
8334;BME280;4204;43.004;23.052;2023-02-16T04:38:56;94923.47;;;-2.70;100.00
8334;BME280;4204;43.004;23.052;2023-02-16T04:41:24;94917.50;;;-2.84;100.00
8334;BME280;4204;43.004;23.052;2023-02-16T04:43:52;94920.91;;;-2.90;100.00
8334;BME280;4204;43.004;23.052;2023-02-16T04:46:20;94911.88;;;-2.87;100.00
8334;BME280;4204;43.004;23.052;2023-02-16T04:48:48;94921.28;;;-2.80;100.00
8334;BME280;4204;43.004;23.052;2023-02-16T04:51:16;94921.25;;;-2.67;100.00
8334;BME280;4204;43.004;23.052;2023-02-16T04:53:45;94920.50;;;-2.29;100.00
8334;BME280;4204;43.004;23.052;2023-02-16T04:56:13;94913.34;;;-2.34;100.00
8334;BME280;4204;43.004;23.052;2023-02-16T04:58:41;94914.09;;;-2.97;100.00
8334;BME280;4204;43.004;23.052;2023-02-16T05:01:17;94912.53;;;-3.24;100.00
8334;BME280;4204;43.004;23.052;2023-02-16T05:03:45;94917.13;;;-3.53;100.00
8334;BME280;4204;43.004;23.052;2023-02-16T05:06:13;94914.91;;;-3.56;100.00
8334;BME280;4204;43.004;23.052;2023-02-16T05:08:40;94922.53;;;-3.54;100.00
8334;BME280;4204;43.004;23.052;2023-02-16T05:11:15;94917.13;;;-3.66;100.00
8334;BME280;4204;43.004;23.052;2023-02-16T05:14:00;94911.91;;;-3.66;100.00
8334;BME280;4204;43.004;23.052;2023-02-16T05:16:46;94939.94;;;-3.61;100.00
8334;BME280;4204;43.004;23.052;2023-02-16T05:19:13;94922.34;;;-3.27;100.00
8334;BME280;4204;43.004;23.052;2023-02-16T05:21:41;94928.91;;;-3.70;100.00
8334;BME280;4204;43.004;23.052;2023-02-16T05:24:10;94930.88;;;-3.98;100.00
8334;BME280;4204;43.004;23.052;2023-02-16T05:26:39;94933.81;;;-4.07;100.00
8334;BME280;4204;43.004;23.052;2023-02-16T05:29:07;94927.59;;;-4.20;100.00
8334;BME280;4204;43.004;23.052;2023-02-16T05:31:35;94920.91;;;-4.48;100.00
8334;BME280;4204;43.004;23.052;2023-02-16T05:34:02;94931.66;;;-4.58;100.00
8334;BME280;4204;43.004;23.052;2023-02-16T05:36:30;94931.03;;;-4.66;100.00
8334;BME280;4204;43.004;23.052;2023-02-16T05:38:58;94929.56;;;-4.75;100.00
8334;BME280;4204;43.004;23.052;2023-02-16T05:41:25;94942.81;;;-4.64;100.00
8334;BME280;4204;43.004;23.052;2023-02-16T05:43:56;94946.75;;;-4.34;100.00
8334;BME280;4204;43.004;23.052;2023-02-16T05:46:26;94944.81;;;-4.05;100.00
8334;BME280;4204;43.004;23.052;2023-02-16T05:48:54;94942.06;;;-3.91;100.00
8334;BME280;4204;43.004;23.052;2023-02-16T05:51:21;94942.94;;;-3.71;100.00
8334;BME280;4204;43.004;23.052;2023-02-16T05:53:49;94944.94;;;-3.47;100.00
8334;BME280;4204;43.004;23.052;2023-02-16T05:56:18;94957.13;;;-3.14;100.00
8334;BME280;4204;43.004;23.052;2023-02-16T05:58:46;94952.16;;;-3.36;100.00
8334;BME280;4204;43.004;23.052;2023-02-16T06:01:16;94953.34;;;-3.38;100.00
8334;BME280;4204;43.004;23.052;2023-02-16T06:03:44;94965.97;;;-3.42;100.00
8334;BME280;4204;43.004;23.052;2023-02-16T06:06:13;94961.16;;;-3.32;100.00
8334;BME280;4204;43.004;23.052;2023-02-16T06:08:40;94972.34;;;-3.24;100.00
8334;BME280;4204;43.004;23.052;2023-02-16T06:11:08;94971.56;;;-3.05;100.00
8334;BME280;4204;43.004;23.052;2023-02-16T06:13:56;94970.19;;;-3.21;100.00
8334;BME280;4204;43.004;23.052;2023-02-16T06:16:27;94973.16;;;-3.24;100.00
8334;BME280;4204;43.004;23.052;2023-02-16T06:18:55;94972.97;;;-3.22;100.00
8334;BME280;4204;43.004;23.052;2023-02-16T06:21:23;94972.16;;;-3.16;100.00
8334;BME280;4204;43.004;23.052;2023-02-16T06:23:51;94977.34;;;-3.16;100.00
8334;BME280;4204;43.004;23.052;2023-02-16T06:26:20;94979.38;;;-3.05;100.00
8334;BME280;4204;43.004;23.052;2023-02-16T06:28:47;94980.38;;;-3.06;100.00
8334;BME280;4204;43.004;23.052;2023-02-16T06:31:15;94980.78;;;-3.09;100.00
8334;BME280;4204;43.004;23.052;2023-02-16T06:33:44;94980.56;;;-3.01;100.00
8334;BME280;4204;43.004;23.052;2023-02-16T06:36:13;94980.97;;;-3.04;100.00
8334;BME280;4204;43.004;23.052;2023-02-16T06:38:41;94975.34;;;-3.01;100.00
8334;BME280;4204;43.004;23.052;2023-02-16T06:41:09;94977.75;;;-2.93;100.00
8334;BME280;4204;43.004;23.052;2023-02-16T06:43:37;94967.34;;;-2.74;100.00
8334;BME280;4204;43.004;23.052;2023-02-16T06:46:05;94965.47;;;-2.54;100.00
8334;BME280;4204;43.004;23.052;2023-02-16T06:48:33;94939.66;;;-2.04;100.00
8334;BME280;4204;43.004;23.052;2023-02-16T06:51:02;94950.19;;;-2.30;100.00
8334;BME280;4204;43.004;23.052;2023-02-16T06:53:30;94954.47;;;-2.49;100.00
8334;BME280;4204;43.004;23.052;2023-02-16T06:55:57;94949.41;;;-2.37;100.00
8334;BME280;4204;43.004;23.052;2023-02-16T06:58:25;94950.22;;;-2.37;100.00
8334;BME280;4204;43.004;23.052;2023-02-16T07:00:53;94941.19;;;-2.34;100.00
8334;BME280;4204;43.004;23.052;2023-02-16T07:03:21;94942.56;;;-1.88;100.00
8334;BME280;4204;43.004;23.052;2023-02-16T07:05:50;94941.47;;;-1.74;100.00
8334;BME280;4204;43.004;23.052;2023-02-16T07:08:19;94940.56;;;-1.54;100.00
8334;BME280;4204;43.004;23.052;2023-02-16T07:10:47;94949.41;;;-1.55;100.00
8334;BME280;4204;43.004;23.052;2023-02-16T07:13:15;94933.34;;;-1.52;100.00
8334;BME280;4204;43.004;23.052;2023-02-16T07:15:42;94944.53;;;-1.45;100.00
8334;BME280;4204;43.004;23.052;2023-02-16T07:18:10;94932.03;;;-1.37;100.00
8334;BME280;4204;43.004;23.052;2023-02-16T07:20:39;94929.75;;;-1.27;100.00
8334;BME280;4204;43.004;23.052;2023-02-16T07:23:07;94929.03;;;-1.16;100.00
8334;BME280;4204;43.004;23.052;2023-02-16T07:25:36;94924.66;;;-0.97;100.00
8334;BME280;4204;43.004;23.052;2023-02-16T07:28:04;94941.03;;;-0.84;100.00
8334;BME280;4204;43.004;23.052;2023-02-16T07:30:32;94933.84;;;-0.70;100.00
8334;BME280;4204;43.004;23.052;2023-02-16T07:32:59;94931.53;;;-0.60;100.00
8334;BME280;4204;43.004;23.052;2023-02-16T07:35:27;94939.03;;;-0.45;100.00
8334;BME280;4204;43.004;23.052;2023-02-16T07:37:55;94933.00;;;-0.28;100.00
8334;BME280;4204;43.004;23.052;2023-02-16T07:40:24;94917.44;;;-0.23;100.00
8334;BME280;4204;43.004;23.052;2023-02-16T07:42:53;94927.16;;;0.07;100.00
8334;BME280;4204;43.004;23.052;2023-02-16T07:45:21;94924.22;;;0.15;100.00
8334;BME280;4204;43.004;23.052;2023-02-16T07:47:49;94933.63;;;0.34;100.00
8334;BME280;4204;43.004;23.052;2023-02-16T07:50:17;94927.19;;;0.48;100.00
8334;BME280;4204;43.004;23.052;2023-02-16T07:52:46;94926.66;;;0.57;100.00
8334;BME280;4204;43.004;23.052;2023-02-16T07:55:14;94923.38;;;0.62;100.00
8334;BME280;4204;43.004;23.052;2023-02-16T07:57:42;94927.72;;;0.68;100.00
8334;BME280;4204;43.004;23.052;2023-02-16T08:00:12;94932.97;;;0.79;100.00
8334;BME280;4204;43.004;23.052;2023-02-16T08:02:40;94931.59;;;0.77;100.00
8334;BME280;4204;43.004;23.052;2023-02-16T08:05:08;94936.72;;;0.83;100.00
8334;BME280;4204;43.004;23.052;2023-02-16T08:07:35;94936.28;;;0.87;100.00
8334;BME280;4204;43.004;23.052;2023-02-16T08:10:06;94937.78;;;0.94;100.00
8334;BME280;4204;43.004;23.052;2023-02-16T08:12:33;94939.81;;;0.92;100.00
8334;BME280;4204;43.004;23.052;2023-02-16T08:15:01;94940.06;;;1.02;100.00
8334;BME280;4204;43.004;23.052;2023-02-16T08:17:30;94934.03;;;1.13;100.00
8334;BME280;4204;43.004;23.052;2023-02-16T08:19:58;94941.56;;;1.21;100.00
8334;BME280;4204;43.004;23.052;2023-02-16T08:22:26;94944.75;;;1.23;100.00
8334;BME280;4204;43.004;23.052;2023-02-16T08:24:54;94940.31;;;1.35;100.00
8334;BME280;4204;43.004;23.052;2023-02-16T08:27:22;94946.81;;;1.44;100.00
8334;BME280;4204;43.004;23.052;2023-02-16T08:29:50;94939.59;;;1.51;100.00
8334;BME280;4204;43.004;23.052;2023-02-16T08:32:18;94942.44;;;1.61;100.00
8334;BME280;4204;43.004;23.052;2023-02-16T08:34:47;94939.59;;;1.75;100.00
8334;BME280;4204;43.004;23.052;2023-02-16T08:37:15;94943.00;;;1.75;100.00
8334;BME280;4204;43.004;23.052;2023-02-16T08:39:43;94949.84;;;1.88;100.00
8334;BME280;4204;43.004;23.052;2023-02-16T08:42:11;94950.03;;;1.98;100.00
8334;BME280;4204;43.004;23.052;2023-02-16T08:44:39;94941.81;;;2.06;100.00
8334;BME280;4204;43.004;23.052;2023-02-16T08:47:07;94951.13;;;2.13;100.00
8334;BME280;4204;43.004;23.052;2023-02-16T08:49:36;94944.81;;;2.26;100.00
8334;BME280;4204;43.004;23.052;2023-02-16T08:52:05;94947.16;;;2.39;100.00
8334;BME280;4204;43.004;23.052;2023-02-16T08:54:35;94932.31;;;2.44;100.00
8334;BME280;4204;43.004;23.052;2023-02-16T08:57:03;94938.88;;;2.59;100.00
8334;BME280;4204;43.004;23.052;2023-02-16T08:59:31;94943.50;;;2.68;100.00
8334;BME280;4204;43.004;23.052;2023-02-16T09:02:00;94943.81;;;2.72;100.00
8334;BME280;4204;43.004;23.052;2023-02-16T09:04:28;94946.06;;;2.80;100.00
8334;BME280;4204;43.004;23.052;2023-02-16T09:06:57;94942.91;;;2.94;100.00
8334;BME280;4204;43.004;23.052;2023-02-16T09:09:26;94945.13;;;3.02;100.00
8334;BME280;4204;43.004;23.052;2023-02-16T09:11:54;94949.91;;;3.05;100.00
8334;BME280;4204;43.004;23.052;2023-02-16T09:14:23;94942.50;;;3.19;100.00
8334;BME280;4204;43.004;23.052;2023-02-16T09:16:50;94943.78;;;3.33;100.00
8334;BME280;4204;43.004;23.052;2023-02-16T09:19:20;94948.53;;;3.53;100.00
8334;BME280;4204;43.004;23.052;2023-02-16T09:21:48;94947.31;;;3.60;100.00
8334;BME280;4204;43.004;23.052;2023-02-16T09:24:17;94949.72;;;3.62;100.00
8334;BME280;4204;43.004;23.052;2023-02-16T09:26:46;94948.34;;;3.76;100.00
8334;BME280;4204;43.004;23.052;2023-02-16T09:29:15;94942.13;;;3.82;100.00
8334;BME280;4204;43.004;23.052;2023-02-16T09:31:44;94946.53;;;3.98;100.00
8334;BME280;4204;43.004;23.052;2023-02-16T09:34:15;94932.28;;;4.16;100.00
8334;BME280;4204;43.004;23.052;2023-02-16T09:36:43;94932.69;;;4.29;100.00
8334;BME280;4204;43.004;23.052;2023-02-16T09:39:12;94941.50;;;4.40;100.00
8334;BME280;4204;43.004;23.052;2023-02-16T09:41:58;94935.06;;;4.52;100.00
8334;BME280;4204;43.004;23.052;2023-02-16T09:44:35;94929.59;;;4.59;100.00
8334;BME280;4204;43.004;23.052;2023-02-16T09:47:11;94932.91;;;4.76;100.00
8334;BME280;4204;43.004;23.052;2023-02-16T09:49:42;94930.28;;;4.76;100.00
8334;BME280;4204;43.004;23.052;2023-02-16T09:52:15;94927.75;;;4.86;100.00
8334;BME280;4204;43.004;23.052;2023-02-16T09:54:47;94934.91;;;4.90;100.00
8334;BME280;4204;43.004;23.052;2023-02-16T09:57:28;94926.84;;;5.02;100.00
8334;BME280;4204;43.004;23.052;2023-02-16T10:00:04;94922.91;;;5.05;100.00
8334;BME280;4204;43.004;23.052;2023-02-16T10:02:41;94925.56;;;5.10;100.00
8334;BME280;4204;43.004;23.052;2023-02-16T10:05:16;94930.84;;;5.10;100.00
8334;BME280;4204;43.004;23.052;2023-02-16T10:07:55;94913.28;;;5.20;100.00
8334;BME280;4204;43.004;23.052;2023-02-16T10:10:26;94915.69;;;5.27;100.00
8334;BME280;4204;43.004;23.052;2023-02-16T10:13:03;94918.94;;;5.39;100.00
8334;BME280;4204;43.004;23.052;2023-02-16T10:15:36;94910.06;;;5.50;100.00
8334;BME280;4204;43.004;23.052;2023-02-16T10:18:15;94895.59;;;5.57;100.00
8334;BME280;4204;43.004;23.052;2023-02-16T10:20:49;94902.03;;;5.77;100.00
8334;BME280;4204;43.004;23.052;2023-02-16T10:23:28;94904.25;;;5.90;100.00
8334;BME280;4204;43.004;23.052;2023-02-16T10:26:04;94900.06;;;5.99;100.00
8334;BME280;4204;43.004;23.052;2023-02-16T10:28:45;94895.63;;;6.09;100.00
8334;BME280;4204;43.004;23.052;2023-02-16T10:31:20;94897.22;;;6.15;100.00
8334;BME280;4204;43.004;23.052;2023-02-16T10:34:02;94897.53;;;6.24;100.00
8334;BME280;4204;43.004;23.052;2023-02-16T10:36:48;94889.09;;;6.32;100.00
8334;BME280;4204;43.004;23.052;2023-02-16T10:39:26;94889.38;;;6.40;100.00
8334;BME280;4204;43.004;23.052;2023-02-16T10:42:04;94878.56;;;6.47;100.00
8334;BME280;4204;43.004;23.052;2023-02-16T10:44:38;94881.50;;;6.61;100.00
8334;BME280;4204;43.004;23.052;2023-02-16T10:47:17;94881.78;;;6.69;100.00
8334;BME280;4204;43.004;23.052;2023-02-16T10:49:52;94875.19;;;6.72;100.00
8334;BME280;4204;43.004;23.052;2023-02-16T10:52:22;94870.94;;;6.81;100.00
8334;BME280;4204;43.004;23.052;2023-02-16T10:54:51;94872.03;;;6.85;100.00
8334;BME280;4204;43.004;23.052;2023-02-16T10:57:24;94867.00;;;7.03;100.00
8334;BME280;4204;43.004;23.052;2023-02-16T10:59:56;94870.69;;;7.17;100.00
8334;BME280;4204;43.004;23.052;2023-02-16T11:02:25;94863.03;;;7.26;100.00
8334;BME280;4204;43.004;23.052;2023-02-16T11:04:55;94861.97;;;7.32;100.00
8334;BME280;4204;43.004;23.052;2023-02-16T11:07:25;94858.78;;;7.40;100.00
8334;BME280;4204;43.004;23.052;2023-02-16T11:09:57;94860.06;;;7.53;100.00
8334;BME280;4204;43.004;23.052;2023-02-16T11:12:28;94860.03;;;7.63;100.00
8334;BME280;4204;43.004;23.052;2023-02-16T11:15:01;94854.19;;;7.66;100.00
8334;BME280;4204;43.004;23.052;2023-02-16T11:17:31;94860.53;;;7.80;100.00
8334;BME280;4204;43.004;23.052;2023-02-16T11:20:02;94857.09;;;7.79;100.00
8334;BME280;4204;43.004;23.052;2023-02-16T11:22:32;94853.34;;;7.85;100.00
8334;BME280;4204;43.004;23.052;2023-02-16T11:25:22;94835.84;;;7.94;100.00
8334;BME280;4204;43.004;23.052;2023-02-16T11:27:54;94851.75;;;7.94;100.00
8334;BME280;4204;43.004;23.052;2023-02-16T11:30:31;94842.41;;;8.07;100.00
8334;BME280;4204;43.004;23.052;2023-02-16T11:33:01;94839.75;;;8.12;100.00
8334;BME280;4204;43.004;23.052;2023-02-16T11:35:31;94833.59;;;8.22;100.00
8334;BME280;4204;43.004;23.052;2023-02-16T11:37:59;94828.03;;;8.23;100.00
8334;BME280;4204;43.004;23.052;2023-02-16T11:40:28;94823.47;;;8.39;100.00
8334;BME280;4204;43.004;23.052;2023-02-16T11:42:59;94835.09;;;8.48;100.00
8334;BME280;4204;43.004;23.052;2023-02-16T11:45:30;94811.22;;;8.48;100.00
8334;BME280;4204;43.004;23.052;2023-02-16T11:48:02;94827.00;;;8.68;100.00
8334;BME280;4204;43.004;23.052;2023-02-16T11:50:32;94820.06;;;8.72;100.00
8334;BME280;4204;43.004;23.052;2023-02-16T11:53:13;94821.84;;;8.81;100.00
8334;BME280;4204;43.004;23.052;2023-02-16T11:55:43;94809.38;;;8.82;100.00
8334;BME280;4204;43.004;23.052;2023-02-16T11:58:14;94806.63;;;8.92;100.00
8334;BME280;4204;43.004;23.052;2023-02-16T12:00:52;94803.97;;;8.97;100.00
8334;BME280;4204;43.004;23.052;2023-02-16T12:06:29;94799.59;;;9.11;100.00
8334;BME280;4204;43.004;23.052;2023-02-16T12:09:07;94803.53;;;9.14;100.00
8334;BME280;4204;43.004;23.052;2023-02-16T12:11:44;94783.88;;;9.15;100.00
8334;BME280;4204;43.004;23.052;2023-02-16T12:14:26;94785.75;;;9.14;100.00
8334;BME280;4204;43.004;23.052;2023-02-16T12:17:06;94780.13;;;9.21;100.00
8334;BME280;4204;43.004;23.052;2023-02-16T12:19:40;94785.09;;;9.27;100.00
8334;BME280;4204;43.004;23.052;2023-02-16T12:22:19;94781.81;;;9.35;100.00
8334;BME280;4204;43.004;23.052;2023-02-16T12:25:00;94776.69;;;9.44;100.00
8334;BME280;4204;43.004;23.052;2023-02-16T12:27:32;94770.59;;;9.43;100.00
8334;BME280;4204;43.004;23.052;2023-02-16T12:30:16;94773.19;;;9.48;100.00
8334;BME280;4204;43.004;23.052;2023-02-16T12:33:00;94766.06;;;9.44;100.00
8334;BME280;4204;43.004;23.052;2023-02-16T12:35:47;94776.88;;;9.52;100.00
8334;BME280;4204;43.004;23.052;2023-02-16T12:38:26;94769.47;;;9.49;100.00
8334;BME280;4204;43.004;23.052;2023-02-16T12:41:06;94767.78;;;9.58;100.00
8334;BME280;4204;43.004;23.052;2023-02-16T12:43:41;94758.63;;;9.69;100.00
8334;BME280;4204;43.004;23.052;2023-02-16T12:46:13;94763.75;;;9.85;100.00
8334;BME280;4204;43.004;23.052;2023-02-16T12:48:48;94759.25;;;10.04;100.00
8334;BME280;4204;43.004;23.052;2023-02-16T12:51:20;94751.75;;;10.11;100.00
8334;BME280;4204;43.004;23.052;2023-02-16T12:53:56;94757.00;;;10.16;100.00
8334;BME280;4204;43.004;23.052;2023-02-16T12:56:30;94749.53;;;10.18;100.00
8334;BME280;4204;43.004;23.052;2023-02-16T12:59:11;94755.84;;;10.22;100.00
8334;BME280;4204;43.004;23.052;2023-02-16T13:01:42;94745.38;;;10.30;100.00
8334;BME280;4204;43.004;23.052;2023-02-16T13:04:17;94740.91;;;10.44;100.00
8334;BME280;4204;43.004;23.052;2023-02-16T13:06:52;94739.31;;;10.43;100.00
8334;BME280;4204;43.004;23.052;2023-02-16T13:09:31;94735.28;;;10.46;100.00
8334;BME280;4204;43.004;23.052;2023-02-16T13:12:07;94731.16;;;10.53;100.00
8334;BME280;4204;43.004;23.052;2023-02-16T13:14:41;94739.09;;;10.58;100.00
8334;BME280;4204;43.004;23.052;2023-02-16T13:17:14;94732.16;;;10.57;100.00
8334;BME280;4204;43.004;23.052;2023-02-16T13:19:45;94729.25;;;10.59;100.00
8334;BME280;4204;43.004;23.052;2023-02-16T13:22:53;94726.97;;;10.66;100.00
8334;BME280;4204;43.004;23.052;2023-02-16T13:25:38;94716.28;;;10.71;100.00
8334;BME280;4204;43.004;23.052;2023-02-16T13:28:36;94720.75;;;10.89;100.00
8334;BME280;4204;43.004;23.052;2023-02-16T13:31:24;94719.44;;;10.87;100.00
8334;BME280;4204;43.004;23.052;2023-02-16T13:34:12;94711.47;;;10.87;100.00
8334;BME280;4204;43.004;23.052;2023-02-16T13:37:11;94723.84;;;10.96;100.00